Time;durP1;ratioP1;P1;durP2;ratioP2;P2;SDS_P1;SDS_P2;PMS_P1;PMS_P2;Temp;Humidity;BMP_temperature;BMP_pressure;BME280_temperature;BME280_humidity;BME280_pressure;Samples;Min_cycle;Max_cycle;Signal;HPM_P1;HPM_P2
2023/08/17 00:00:14;;;;;;;14.90;7.88;;;25.70;99.90;;;;;;7420181;19;19923;-81
2023/08/17 00:02:41;;;;;;;16.85;7.07;;;25.70;99.90;;;;;;7424065;19;19929;-81
2023/08/17 00:05:07;;;;;;;13.18;7.53;;;25.70;99.90;;;;;;7421678;19;19915;-81
2023/08/17 00:07:33;;;;;;;14.70;7.50;;;25.70;99.90;;;;;;7401006;19;19927;-80
2023/08/17 00:09:59;;;;;;;14.65;7.53;;;25.60;99.90;;;;;;7419575;19;19950;-80
2023/08/17 00:12:25;;;;;;;14.82;7.28;;;25.60;99.90;;;;;;7416755;19;19929;-80
2023/08/17 00:14:51;;;;;;;12.50;7.68;;;25.60;99.90;;;;;;7423263;19;19939;-81
2023/08/17 00:17:17;;;;;;;14.45;7.15;;;25.60;99.90;;;;;;7395019;19;19915;-80
2023/08/17 00:19:43;;;;;;;15.23;6.95;;;25.60;99.90;;;;;;7421164;19;19911;-80
2023/08/17 00:22:09;;;;;;;16.02;7.05;;;25.60;99.90;;;;;;7416365;19;19929;-80
2023/08/17 00:24:35;;;;;;;14.05;6.15;;;25.60;99.90;;;;;;7419498;19;19951;-81
2023/08/17 00:27:03;;;;;;;13.68;6.78;;;25.60;99.90;;;;;;7421456;19;19922;-81
2023/08/17 00:29:30;;;;;;;17.63;7.20;;;25.60;99.90;;;;;;7421265;19;19910;-81
2023/08/17 00:31:55;;;;;;;13.20;6.65;;;25.60;99.90;;;;;;7422056;19;20362;-81
2023/08/17 00:34:21;;;;;;;12.68;6.80;;;25.60;99.90;;;;;;7418506;19;19964;-81
2023/08/17 00:36:47;;;;;;;14.38;7.18;;;25.50;99.90;;;;;;7418108;19;19929;-81
2023/08/17 00:39:14;;;;;;;16.92;8.00;;;25.50;99.90;;;;;;7416897;19;19974;-80
2023/08/17 00:41:41;;;;;;;13.73;7.57;;;25.50;99.90;;;;;;7422151;19;19926;-80
2023/08/17 00:44:07;;;;;;;16.60;7.25;;;25.50;99.90;;;;;;7418345;19;19915;-80
2023/08/17 00:46:34;;;;;;;13.80;6.78;;;25.40;99.90;;;;;;7421700;19;19915;-80
2023/08/17 00:49:00;;;;;;;13.57;7.32;;;25.40;99.90;;;;;;7421381;19;19939;-81
2023/08/17 00:51:27;;;;;;;13.18;7.15;;;25.30;99.90;;;;;;7425381;19;19920;-82
2023/08/17 00:53:58;;;;;;;15.18;6.22;;;25.30;99.90;;;;;;7425484;19;19907;-81
2023/08/17 00:56:25;;;;;;;16.55;7.05;;;25.30;99.90;;;;;;7423947;19;19915;-81
2023/08/17 00:58:52;;;;;;;13.10;7.20;;;25.30;99.90;;;;;;7426053;19;19939;-80
2023/08/17 01:01:17;;;;;;;;;;;25.30;99.90;;;;;;7428109;19;19923;-80
2023/08/17 01:03:46;;;;;;;11.50;6.18;;;25.40;99.90;;;;;;7428026;19;19935;-81
2023/08/17 01:06:12;;;;;;;12.35;7.47;;;25.40;99.90;;;;;;7424811;19;19922;-81
2023/08/17 01:08:43;;;;;;;16.85;7.28;;;25.50;99.90;;;;;;7427320;19;19936;-81
2023/08/17 01:11:41;;;;;;;14.93;7.18;;;25.60;99.90;;;;;;7393897;19;19926;-82
2023/08/17 01:14:34;;;;;;;12.80;6.43;;;25.60;99.90;;;;;;7423145;19;19918;-81
2023/08/17 01:17:02;;;;;;;17.50;7.32;;;25.60;99.90;;;;;;7425304;19;19951;-82
2023/08/17 01:19:28;;;;;;;17.08;6.85;;;25.60;99.90;;;;;;7401537;19;19921;-81
2023/08/17 01:22:03;;;;;;;16.80;6.90;;;25.50;99.90;;;;;;7425489;19;19919;-81
2023/08/17 01:24:29;;;;;;;13.05;7.70;;;25.40;99.90;;;;;;7425269;19;20224;-80
2023/08/17 01:26:55;;;;;;;12.02;6.65;;;25.50;99.90;;;;;;7425131;19;19922;-80
2023/08/17 01:29:21;;;;;;;10.52;6.43;;;25.40;99.90;;;;;;7424055;19;20350;-80
2023/08/17 01:31:53;;;;;;;16.35;6.63;;;25.30;99.90;;;;;;7428420;19;19915;-82
2023/08/17 01:34:23;;;;;;;14.18;7.05;;;25.30;99.90;;;;;;7425914;19;19925;-81
2023/08/17 01:36:58;;;;;;;14.50;6.72;;;25.20;99.90;;;;;;7427899;19;19941;-81
2023/08/17 01:39:30;;;;;;;13.40;7.10;;;25.20;99.90;;;;;;7425921;19;19914;-81
2023/08/17 01:41:56;;;;;;;;;;;25.20;99.90;;;;;;7429610;19;19925;-81
2023/08/17 01:44:23;;;;;;;17.17;7.10;;;25.10;99.90;;;;;;7423487;19;19965;-81
2023/08/17 01:46:48;;;;;;;14.48;7.03;;;25.10;99.90;;;;;;7427154;19;19952;-81
2023/08/17 01:49:14;;;;;;;16.45;7.13;;;25.10;99.90;;;;;;7421326;19;19918;-80
2023/08/17 01:51:40;;;;;;;17.77;7.07;;;25.20;99.90;;;;;;7427502;19;19945;-80
2023/08/17 01:54:06;;;;;;;12.18;6.43;;;25.20;99.90;;;;;;7425486;19;20222;-80
2023/08/17 01:56:32;;;;;;;13.50;7.00;;;25.20;99.90;;;;;;7424647;19;19922;-80
2023/08/17 01:58:59;;;;;;;14.93;6.95;;;25.30;99.90;;;;;;7402121;19;19945;-80
2023/08/17 02:01:25;;;;;;;18.65;7.53;;;25.30;99.90;;;;;;7423362;19;19929;-80
2023/08/17 02:03:52;;;;;;;14.27;7.03;;;25.30;99.90;;;;;;7422779;19;19945;-80
2023/08/17 02:06:18;;;;;;;15.93;6.55;;;25.40;99.90;;;;;;7421997;19;19970;-79
2023/08/17 02:08:45;;;;;;;13.07;6.32;;;25.40;99.90;;;;;;7395710;19;19971;-80
2023/08/17 02:11:11;;;;;;;11.00;6.70;;;25.30;99.90;;;;;;7371080;19;19946;-81
2023/08/17 02:13:37;;;;;;;12.60;6.88;;;25.30;99.90;;;;;;7427260;19;20266;-81
2023/08/17 02:16:08;;;;;;;13.07;7.07;;;25.30;99.90;;;;;;7426150;19;19963;-80
2023/08/17 02:18:34;;;;;;;16.70;7.30;;;25.30;99.90;;;;;;7426262;19;19915;-80
2023/08/17 02:21:01;;;;;;;13.32;7.10;;;25.30;99.90;;;;;;7426335;19;19919;-81
2023/08/17 02:23:26;;;;;;;13.35;6.95;;;25.30;99.90;;;;;;7401765;19;19933;-80
2023/08/17 02:25:52;;;;;;;12.73;6.53;;;25.20;99.90;;;;;;7423683;19;19930;-81
2023/08/17 02:28:18;;;;;;;12.32;6.70;;;25.20;99.90;;;;;;7422435;19;19919;-81
2023/08/17 02:30:46;;;;;;;12.95;7.10;;;25.10;99.90;;;;;;7426147;19;19922;-81
2023/08/17 02:33:12;;;;;;;13.57;7.45;;;25.10;99.90;;;;;;7424168;19;19910;-80
2023/08/17 02:35:38;;;;;;;10.90;6.22;;;25.10;99.90;;;;;;7422979;19;19932;-81
2023/08/17 02:38:05;;;;;;;12.18;7.20;;;25.10;99.90;;;;;;7423990;19;19911;-79
2023/08/17 02:40:30;;;;;;;10.18;6.35;;;25.10;99.90;;;;;;7422194;19;19922;-81
2023/08/17 02:42:56;;;;;;;9.52;6.68;;;25.10;99.90;;;;;;7426529;19;19924;-81
2023/08/17 02:45:22;;;;;;;12.35;6.95;;;25.00;99.90;;;;;;7419119;19;19931;-80
2023/08/17 02:47:49;;;;;;;10.55;6.78;;;25.00;99.90;;;;;;7425815;19;19906;-81
2023/08/17 02:50:14;;;;;;;12.30;6.55;;;25.00;99.90;;;;;;7420922;19;19938;-81
2023/08/17 02:52:40;;;;;;;16.27;7.00;;;25.00;99.90;;;;;;7424471;19;19948;-81
2023/08/17 02:55:06;;;;;;;13.20;6.97;;;25.00;99.90;;;;;;7424707;19;19933;-80
2023/08/17 02:57:32;;;;;;;13.95;5.80;;;25.00;99.90;;;;;;7407398;19;19937;-81
2023/08/17 02:59:58;;;;;;;11.02;6.57;;;25.00;99.90;;;;;;7430600;19;19914;-82
2023/08/17 03:02:26;;;;;;;11.57;6.72;;;25.00;99.90;;;;;;7392109;19;19939;-81
2023/08/17 03:04:53;;;;;;;14.48;6.40;;;25.00;99.90;;;;;;7429311;19;19923;-81
2023/08/17 03:07:19;;;;;;;11.68;6.32;;;24.90;99.90;;;;;;7344082;19;19937;-81
2023/08/17 03:09:48;;;;;;;15.05;6.88;;;24.90;99.90;;;;;;7427453;19;19914;-81
2023/08/17 03:12:14;;;;;;;14.73;6.07;;;24.90;99.90;;;;;;7422057;19;19915;-80
2023/08/17 03:14:40;;;;;;;12.18;6.10;;;24.90;99.90;;;;;;7404761;19;19955;-81
2023/08/17 03:17:06;;;;;;;10.98;6.65;;;24.90;99.90;;;;;;7420761;19;19918;-80
2023/08/17 03:19:33;;;;;;;17.02;6.40;;;24.80;99.90;;;;;;7422517;19;19918;-81
2023/08/17 03:21:59;;;;;;;11.90;6.55;;;24.80;99.90;;;;;;7423459;19;19933;-79
2023/08/17 03:24:24;;;;;;;13.50;7.15;;;24.70;99.90;;;;;;7396724;19;21375;-80
2023/08/17 03:26:50;;;;;;;10.98;6.43;;;24.70;99.90;;;;;;7416664;19;19918;-78
2023/08/17 03:29:16;;;;;;;15.60;6.80;;;24.70;99.90;;;;;;7417504;19;20356;-79
2023/08/17 03:31:42;;;;;;;13.40;6.53;;;24.60;99.90;;;;;;7421318;19;19922;-79
2023/08/17 03:34:08;;;;;;;11.07;6.72;;;24.50;99.90;;;;;;7418635;19;20318;-79
2023/08/17 03:36:35;;;;;;;11.00;6.78;;;24.50;99.90;;;;;;7420376;19;20423;-79
2023/08/17 03:39:00;;;;;;;12.25;5.97;;;24.50;99.90;;;;;;7414781;19;19922;-79
2023/08/17 03:41:26;;;;;;;10.48;6.28;;;24.50;99.90;;;;;;7416233;19;19922;-79
2023/08/17 03:43:52;;;;;;;15.60;7.20;;;24.40;99.90;;;;;;7417616;19;19915;-79
2023/08/17 03:46:18;;;;;;;11.05;6.40;;;24.40;99.90;;;;;;7414085;19;19921;-79
2023/08/17 03:48:44;;;;;;;14.35;7.18;;;24.30;99.90;;;;;;7415707;19;20000;-79
2023/08/17 03:51:09;;;;;;;8.93;6.50;;;24.30;99.90;;;;;;7417277;19;20330;-79
2023/08/17 03:53:35;;;;;;;14.40;6.35;;;24.30;99.90;;;;;;7413026;19;20006;-80
2023/08/17 03:56:02;;;;;;;12.40;6.05;;;24.30;99.90;;;;;;7416113;19;19933;-79
2023/08/17 03:58:33;;;;;;;12.48;6.40;;;24.30;99.90;;;;;;7415596;19;19926;-79
2023/08/17 04:00:59;;;;;;;11.23;5.70;;;24.20;99.90;;;;;;7414462;19;19910;-79
2023/08/17 04:03:24;;;;;;;16.58;6.55;;;24.20;99.90;;;;;;7416558;19;19918;-79
2023/08/17 04:05:50;;;;;;;11.18;6.70;;;24.20;99.90;;;;;;7419000;19;19945;-79
2023/08/17 04:08:16;;;;;;;11.20;6.20;;;24.20;99.90;;;;;;7412134;19;19906;-79
2023/08/17 04:10:42;;;;;;;12.07;6.82;;;24.10;99.90;;;;;;7415094;19;20453;-79
2023/08/17 04:13:07;;;;;;;10.48;6.22;;;24.10;99.90;;;;;;7412777;19;19929;-79
2023/08/17 04:15:33;;;;;;;12.70;6.20;;;24.10;99.90;;;;;;7414897;19;20339;-79
2023/08/17 04:17:59;;;;;;;12.52;5.80;;;24.10;99.90;;;;;;7416916;19;19915;-79
2023/08/17 04:20:25;;;;;;;10.30;5.20;;;24.10;99.90;;;;;;7416103;19;19946;-79
2023/08/17 04:22:51;;;;;;;10.40;5.53;;;24.10;99.90;;;;;;7413633;19;19922;-79
2023/08/17 04:25:17;;;;;;;12.07;5.90;;;24.10;99.90;;;;;;7423079;19;19986;-80
2023/08/17 04:27:43;;;;;;;15.57;6.47;;;24.10;99.90;;;;;;7422869;19;19930;-79
2023/08/17 04:30:10;;;;;;;11.98;5.88;;;24.10;99.90;;;;;;7419823;19;19926;-79
2023/08/17 04:32:35;;;;;;;13.32;6.05;;;24.00;99.90;;;;;;7420986;19;19914;-79
2023/08/17 04:35:01;;;;;;;13.38;5.80;;;24.00;99.90;;;;;;7424176;19;19931;-79
2023/08/17 04:37:27;;;;;;;12.85;6.00;;;24.00;99.90;;;;;;7420074;19;19911;-79
2023/08/17 04:39:53;;;;;;;11.45;5.97;;;24.00;99.90;;;;;;7398631;19;19919;-79
2023/08/17 04:42:19;;;;;;;11.07;6.57;;;24.00;99.90;;;;;;7419053;19;19918;-79
2023/08/17 04:44:46;;;;;;;10.65;5.68;;;24.00;99.90;;;;;;7423143;19;19918;-79
2023/08/17 04:47:13;;;;;;;12.85;5.43;;;23.90;99.90;;;;;;7423360;19;19919;-79
2023/08/17 04:49:39;;;;;;;10.90;5.15;;;23.90;99.90;;;;;;7421885;19;19922;-78
2023/08/17 04:52:06;;;;;;;13.27;5.72;;;23.90;99.90;;;;;;7422345;19;20256;-78
2023/08/17 04:54:32;;;;;;;10.95;5.32;;;23.90;99.90;;;;;;7425131;19;19918;-80
2023/08/17 04:56:58;;;;;;;11.88;5.70;;;23.80;99.90;;;;;;7424217;19;19915;-80
2023/08/17 04:59:23;;;;;;;11.15;6.38;;;23.80;99.90;;;;;;7420245;19;19918;-79
2023/08/17 05:01:49;;;;;;;10.10;5.80;;;23.80;99.90;;;;;;7400491;19;19914;-80
2023/08/17 05:04:15;;;;;;;11.77;5.82;;;23.80;99.90;;;;;;7415319;19;19922;-79
2023/08/17 05:06:42;;;;;;;12.43;5.88;;;23.70;99.90;;;;;;7419853;19;19948;-79
2023/08/17 05:09:08;;;;;;;9.32;5.00;;;23.80;99.90;;;;;;7420991;19;19918;-79
2023/08/17 05:11:34;;;;;;;9.32;5.03;;;23.80;99.90;;;;;;7420180;19;19922;-78
2023/08/17 05:13:59;;;;;;;9.23;4.85;;;23.90;99.90;;;;;;7422141;19;19990;-79
2023/08/17 05:16:25;;;;;;;12.32;6.00;;;23.90;99.90;;;;;;7421655;19;19915;-79
2023/08/17 05:18:51;;;;;;;13.80;5.70;;;23.90;99.90;;;;;;7420626;19;19954;-79
2023/08/17 05:21:17;;;;;;;12.77;6.05;;;23.90;99.90;;;;;;7417014;19;19919;-79
2023/08/17 05:23:43;;;;;;;12.07;5.40;;;23.90;99.90;;;;;;7421200;19;19936;-79
2023/08/17 05:26:08;;;;;;;9.60;5.25;;;23.90;99.90;;;;;;7422938;19;19986;-79
2023/08/17 05:28:34;;;;;;;11.07;5.28;;;23.90;99.90;;;;;;7424281;19;19922;-79
2023/08/17 05:31:08;;;;;;;8.18;4.85;;;23.90;99.90;;;;;;7428880;19;19914;-79
2023/08/17 05:33:34;;;;;;;9.85;5.03;;;23.90;99.90;;;;;;7417750;19;19919;-79
2023/08/17 05:36:00;;;;;;;11.43;5.43;;;23.90;99.90;;;;;;7418227;19;19926;-79
2023/08/17 05:38:26;;;;;;;10.57;4.80;;;24.00;99.90;;;;;;7420028;19;20366;-78
2023/08/17 05:40:56;;;;;;;12.43;5.63;;;24.00;99.90;;;;;;7419043;19;19915;-79
2023/08/17 05:43:24;;;;;;;9.77;6.05;;;24.10;99.90;;;;;;7421707;19;19939;-80
2023/08/17 05:45:50;;;;;;;11.82;5.35;;;24.10;99.90;;;;;;7419207;19;19918;-79
2023/08/17 05:48:19;;;;;;;11.55;5.85;;;24.10;99.90;;;;;;7413428;19;19919;-79
2023/08/17 05:50:44;;;;;;;9.73;5.35;;;24.20;99.90;;;;;;7418722;19;19925;-80
2023/08/17 05:53:10;;;;;;;11.02;6.60;;;24.30;99.90;;;;;;7419590;19;19914;-79
2023/08/17 05:55:36;;;;;;;12.80;6.13;;;24.30;99.90;;;;;;7416808;19;19910;-78
2023/08/17 05:58:03;;;;;;;8.68;4.95;;;24.40;99.90;;;;;;7417596;19;20041;-79
2023/08/17 06:00:29;;;;;;;11.25;5.07;;;24.40;99.90;;;;;;7415212;19;19914;-79
2023/08/17 06:03:00;;;;;;;10.95;5.40;;;24.50;99.90;;;;;;7417986;19;20270;-79
2023/08/17 06:05:28;;;;;;;8.63;5.40;;;24.50;99.90;;;;;;7409478;19;19923;-78
2023/08/17 06:07:54;;;;;;;8.50;4.78;;;24.50;99.90;;;;;;7408263;19;20777;-78
2023/08/17 06:10:24;;;;;;;9.95;5.40;;;24.60;99.90;;;;;;7406856;19;19921;-78
2023/08/17 06:12:52;;;;;;;11.90;5.88;;;24.60;99.90;;;;;;7393241;19;19942;-78
2023/08/17 06:15:17;;;;;;;10.23;5.65;;;24.70;99.90;;;;;;7409054;19;19922;-79
2023/08/17 06:17:43;;;;;;;11.43;5.50;;;24.70;99.90;;;;;;7412362;19;19922;-78
2023/08/17 06:20:10;;;;;;;8.25;5.15;;;24.80;99.90;;;;;;7403187;19;20524;-78
2023/08/17 06:22:36;;;;;;;13.48;5.72;;;24.90;99.90;;;;;;7411840;19;19923;-78
2023/08/17 06:25:03;;;;;;;9.95;5.68;;;24.90;99.90;;;;;;7407018;19;19921;-77
2023/08/17 06:27:29;;;;;;;11.68;5.47;;;25.00;99.90;;;;;;7408837;19;19918;-78
2023/08/17 06:29:55;;;;;;;11.95;5.78;;;25.00;99.90;;;;;;7406865;19;20263;-77
2023/08/17 06:32:21;;;;;;;9.70;6.05;;;25.10;99.90;;;;;;7408482;19;19914;-79
2023/08/17 06:34:46;;;;;;;11.60;5.60;;;25.20;99.90;;;;;;7408265;19;19918;-77
2023/08/17 06:37:14;;;;;;;10.05;5.47;;;25.20;99.90;;;;;;7387678;19;19926;-78
2023/08/17 06:39:40;;;;;;;12.55;5.80;;;25.30;99.90;;;;;;7401986;19;19925;-77
2023/08/17 06:42:05;;;;;;;13.35;5.57;;;25.30;99.90;;;;;;7410174;19;19919;-78
2023/08/17 06:44:33;;;;;;;8.63;5.07;;;25.40;99.90;;;;;;7409409;19;19949;-78
2023/08/17 06:46:58;;;;;;;11.98;5.60;;;25.50;99.90;;;;;;7409078;19;19919;-78
2023/08/17 06:49:27;;;;;;;10.15;5.03;;;25.60;99.90;;;;;;7406587;19;19911;-79
2023/08/17 06:51:53;;;;;;;12.23;5.75;;;25.60;99.90;;;;;;7375866;19;19942;-77
2023/08/17 06:54:19;;;;;;;9.43;5.20;;;25.70;99.90;;;;;;7407242;19;20007;-78
2023/08/17 06:56:45;;;;;;;14.05;5.95;;;25.80;99.90;;;;;;7407999;19;19925;-78
2023/08/17 06:59:12;;;;;;;12.10;4.97;;;25.90;99.90;;;;;;7406580;19;19928;-78
2023/08/17 07:01:38;;;;;;;8.65;5.18;;;26.00;99.70;;;;;;7407922;19;19958;-78
2023/08/17 07:04:04;;;;;;;10.73;5.32;;;26.10;99.50;;;;;;7388925;19;20288;-78
2023/08/17 07:06:30;;;;;;;12.18;5.38;;;26.10;99.50;;;;;;7411009;19;19917;-78
2023/08/17 07:08:56;;;;;;;11.57;5.00;;;26.10;99.40;;;;;;7411489;19;19915;-78
2023/08/17 07:11:22;;;;;;;14.65;5.28;;;26.10;99.80;;;;;;7407202;19;20371;-78
2023/08/17 07:13:48;;;;;;;13.65;5.88;;;26.20;99.90;;;;;;7407423;19;20279;-78
2023/08/17 07:16:17;;;;;;;12.13;5.18;;;26.20;99.90;;;;;;7408084;19;19941;-79
2023/08/17 07:18:43;;;;;;;11.15;6.13;;;26.30;99.90;;;;;;7406843;19;19956;-78
2023/08/17 07:21:09;;;;;;;12.27;5.70;;;26.30;99.80;;;;;;7405530;19;19915;-79
2023/08/17 07:23:35;;;;;;;10.25;4.85;;;26.40;99.90;;;;;;7414195;19;19907;-78
2023/08/17 07:26:01;;;;;;;12.75;5.40;;;26.50;99.70;;;;;;7414951;19;19919;-80
2023/08/17 07:28:27;;;;;;;12.50;5.30;;;26.60;99.70;;;;;;7422030;19;19922;-81
2023/08/17 07:30:52;;;;;;;12.73;6.15;;;26.70;99.30;;;;;;7422244;19;19915;-82
2023/08/17 07:33:18;;;;;;;9.35;4.70;;;26.70;99.20;;;;;;7420625;19;19925;-82
2023/08/17 07:35:44;;;;;;;13.57;5.20;;;26.80;98.80;;;;;;7420882;19;19937;-81
2023/08/17 07:38:10;;;;;;;13.05;5.38;;;26.80;98.90;;;;;;7419874;19;19922;-82
2023/08/17 07:40:39;;;;;;;11.55;5.22;;;26.90;99.40;;;;;;7418977;19;19914;-81
2023/08/17 07:43:04;;;;;;;13.35;5.95;;;26.90;99.40;;;;;;7420596;19;19917;-81
2023/08/17 07:45:31;;;;;;;;;;;26.90;99.10;;;;;;7425366;19;19921;-82
2023/08/17 07:47:58;;;;;;;13.18;5.22;;;27.00;98.60;;;;;;7423160;19;19919;-81
2023/08/17 07:50:24;;;;;;;10.70;5.63;;;27.10;98.60;;;;;;7421439;19;19963;-81
2023/08/17 07:52:49;;;;;;;11.45;4.88;;;27.10;98.50;;;;;;7421925;19;19919;-82
2023/08/17 07:55:18;;;;;;;10.50;4.82;;;27.20;98.40;;;;;;7417964;19;19911;-81
2023/08/17 07:57:44;;;;;;;13.52;5.32;;;27.20;98.30;;;;;;7422422;19;19935;-81
2023/08/17 08:00:10;;;;;;;10.63;4.80;;;27.30;98.50;;;;;;7419315;19;19923;-81
2023/08/17 08:02:36;;;;;;;;;;;27.40;98.00;;;;;;7391229;19;19910;-81
2023/08/17 08:05:02;;;;;;;8.95;4.50;;;27.40;97.90;;;;;;7426144;19;20337;-81
2023/08/17 08:07:27;;;;;;;11.00;4.45;;;27.40;97.80;;;;;;7412154;19;20015;-79
2023/08/17 08:09:53;;;;;;;8.32;4.25;;;27.50;97.50;;;;;;7410574;19;19919;-79
2023/08/17 08:12:19;;;;;;;11.02;5.78;;;27.60;96.90;;;;;;7407656;19;19937;-78
2023/08/17 08:14:45;;;;;;;9.98;4.68;;;27.70;96.30;;;;;;7415584;19;19923;-79
2023/08/17 08:17:11;;;;;;;11.43;6.00;;;27.70;96.00;;;;;;7411456;19;20539;-79
2023/08/17 08:19:36;;;;;;;10.38;4.60;;;27.80;96.00;;;;;;7410391;19;19926;-79
2023/08/17 08:22:04;;;;;;;8.55;4.50;;;28.00;95.40;;;;;;7413533;19;19914;-78
2023/08/17 08:24:33;;;;;;;10.52;5.35;;;28.10;94.90;;;;;;7410379;19;20006;-78
2023/08/17 08:27:03;;;;;;;9.95;4.82;;;28.10;94.70;;;;;;7411874;19;19915;-79
2023/08/17 08:29:29;;;;;;;9.98;4.65;;;28.20;94.30;;;;;;7411844;19;19907;-79
2023/08/17 08:31:57;;;;;;;8.98;3.97;;;28.20;94.30;;;;;;7413582;19;20632;-78
2023/08/17 08:34:22;;;;;;;12.75;4.72;;;28.30;94.10;;;;;;7407590;19;19935;-78
2023/08/17 08:36:50;;;;;;;10.38;5.43;;;28.20;94.10;;;;;;7412627;19;19914;-79
2023/08/17 08:39:16;;;;;;;9.38;4.05;;;28.20;93.60;;;;;;7409360;19;20250;-79
2023/08/17 08:41:41;;;;;;;11.98;4.90;;;28.60;93.10;;;;;;7410538;19;19929;-79
2023/08/17 08:44:07;;;;;;;8.00;4.30;;;30.10;90.10;;;;;;7411866;19;19935;-79
2023/08/17 08:46:34;;;;;;;10.35;6.38;;;31.20;83.50;;;;;;7411599;19;19918;-78
2023/08/17 08:49:03;;;;;;;10.00;5.65;;;31.90;79.20;;;;;;7413960;19;19944;-79
2023/08/17 08:51:33;;;;;;;10.27;5.55;;;32.60;77.00;;;;;;7411043;19;19918;-79
2023/08/17 08:54:03;;;;;;;10.98;6.88;;;32.90;74.30;;;;;;7410353;19;19927;-79
2023/08/17 08:56:33;;;;;;;10.25;5.70;;;33.20;72.50;;;;;;7406505;19;19932;-79
2023/08/17 08:59:02;;;;;;;9.63;5.38;;;32.90;71.90;;;;;;7407697;19;20331;-79
2023/08/17 09:01:32;;;;;;;8.93;6.53;;;33.10;72.10;;;;;;7407290;19;19907;-80
2023/08/17 09:04:02;;;;;;;7.47;5.53;;;33.30;72.00;;;;;;7412648;19;19925;-79
2023/08/17 09:06:30;;;;;;;8.13;5.25;;;33.90;70.60;;;;;;7413352;19;19946;-80
2023/08/17 09:09:02;;;;;;;8.25;4.88;;;33.70;70.70;;;;;;7413594;19;19921;-80
2023/08/17 09:11:30;;;;;;;11.40;5.07;;;33.30;71.50;;;;;;7407800;19;19947;-82
2023/08/17 09:13:55;;;;;;;10.55;5.75;;;32.60;72.80;;;;;;7425661;19;19911;-80
2023/08/17 09:16:22;;;;;;;12.18;6.07;;;32.60;73.70;;;;;;7422970;19;19929;-80
2023/08/17 09:18:47;;;;;;;8.38;5.63;;;33.70;71.30;;;;;;7428122;19;19955;-80
2023/08/17 09:21:24;;;;;;;8.38;5.60;;;34.30;68.30;;;;;;7421797;19;19919;-81
2023/08/17 09:23:54;;;;;;;8.93;5.47;;;34.20;68.10;;;;;;7427102;19;19919;-81
2023/08/17 09:26:24;;;;;;;12.43;6.78;;;34.70;67.50;;;;;;7422544;19;19929;-81
2023/08/17 09:28:54;;;;;;;11.20;7.25;;;34.90;67.60;;;;;;7426361;19;20250;-80
2023/08/17 09:31:21;;;;;;;9.20;6.65;;;35.10;66.00;;;;;;7401510;19;19930;-80
2023/08/17 09:33:50;;;;;;;11.85;5.97;;;35.00;65.70;;;;;;7391517;19;19922;-81
2023/08/17 09:36:23;;;;;;;8.32;6.20;;;35.30;65.00;;;;;;7421349;19;20327;-81
2023/08/17 09:38:51;;;;;;;9.85;6.60;;;34.90;65.90;;;;;;7424058;19;20303;-81
2023/08/17 09:41:18;;;;;;;8.73;6.18;;;34.70;66.40;;;;;;7420428;19;19914;-80
2023/08/17 09:43:45;;;;;;;9.25;6.28;;;34.50;66.40;;;;;;7391499;19;19921;-80
2023/08/17 09:46:12;;;;;;;9.98;6.20;;;34.10;67.40;;;;;;7422309;19;19919;-80
2023/08/17 09:48:38;;;;;;;13.90;5.95;;;34.80;66.10;;;;;;7425074;19;19926;-82
2023/08/17 09:51:06;;;;;;;11.13;5.95;;;35.30;63.90;;;;;;7421418;19;19911;-83
2023/08/17 09:53:38;;;;;;;10.13;6.30;;;35.60;62.90;;;;;;7419900;19;19919;-81
2023/08/17 09:56:07;;;;;;;9.82;6.28;;;35.60;62.20;;;;;;7416088;19;19947;-81
2023/08/17 09:58:34;;;;;;;9.07;6.05;;;35.90;61.50;;;;;;7423937;19;19911;-81
2023/08/17 10:01:04;;;;;;;11.23;5.65;;;35.80;61.90;;;;;;7423403;19;19906;-80
2023/08/17 10:03:35;;;;;;;9.65;5.22;;;36.10;60.70;;;;;;7420871;19;19932;-81
2023/08/17 10:06:09;;;;;;;10.13;6.32;;;36.20;59.30;;;;;;7422401;19;19961;-78
2023/08/17 10:08:43;;;;;;;8.60;3.80;;;36.40;58.60;;;;;;7418550;19;20348;-80
2023/08/17 10:11:12;;;;;;;9.13;4.22;;;36.10;58.40;;;;;;7415287;19;20282;-79
2023/08/17 10:14:05;;;;;;;9.45;3.85;;;35.80;56.80;;;;;;7411618;19;20636;-83
2023/08/17 10:16:42;;;;;;;8.98;4.88;;;36.00;57.30;;;;;;7425588;19;19918;-83
2023/08/17 10:19:34;;;;;;;7.35;4.95;;;36.20;57.60;;;;;;7424201;19;19967;-82
2023/08/17 10:22:16;;;;;;;10.02;5.68;;;36.60;57.20;;;;;;7424937;19;19907;-81
2023/08/17 10:24:45;;;;;;;8.32;5.00;;;36.50;56.40;;;;;;7424074;19;19922;-83
2023/08/17 10:27:13;;;;;;;7.25;5.35;;;35.10;58.40;;;;;;7423130;19;19926;-83
2023/08/17 10:29:41;;;;;;;7.88;5.45;;;34.40;59.80;;;;;;7423398;19;19911;-82
2023/08/17 10:32:07;;;;;;;9.02;5.60;;;33.90;60.40;;;;;;7421393;19;19910;-82
2023/08/17 10:34:35;;;;;;;6.22;4.25;;;33.60;60.70;;;;;;7424697;19;19995;-82
2023/08/17 10:37:02;;;;;;;7.68;5.20;;;33.30;61.10;;;;;;7423850;19;19978;-82
2023/08/17 10:39:29;;;;;;;7.30;4.35;;;33.40;61.00;;;;;;7422099;19;19919;-82
2023/08/17 10:41:58;;;;;;;7.63;4.25;;;33.50;61.40;;;;;;7424885;19;19914;-82
2023/08/17 10:44:47;;;;;;;8.65;5.38;;;33.70;61.40;;;;;;7424106;19;20370;-81
2023/08/17 10:47:27;;;;;;;9.15;4.75;;;34.10;60.30;;;;;;7422391;19;19907;-81
2023/08/17 10:50:07;;;;;;;9.10;5.03;;;34.40;60.20;;;;;;7424941;19;19922;-81
2023/08/17 10:52:35;;;;;;;8.30;5.28;;;34.40;59.90;;;;;;7423058;19;19938;-81
2023/08/17 10:55:11;;;;;;;8.45;5.93;;;34.10;58.70;;;;;;7423039;19;19919;-82
2023/08/17 10:57:41;;;;;;;8.95;4.90;;;33.90;59.80;;;;;;7422163;19;19926;-81
2023/08/17 11:00:26;;;;;;;8.88;4.68;;;34.10;58.40;;;;;;7402281;19;19911;-83
2023/08/17 11:03:00;;;;;;;7.47;4.60;;;34.20;58.30;;;;;;7424502;19;19915;-82
2023/08/17 11:05:38;;;;;;;8.50;4.57;;;34.50;58.00;;;;;;7401620;19;19938;-82
2023/08/17 11:08:19;;;;;;;8.18;5.43;;;35.00;58.40;;;;;;7395190;19;19922;-81
2023/08/17 11:11:12;;;;;;;9.57;5.68;;;35.00;58.10;;;;;;7422698;19;19938;-80
2023/08/17 11:13:43;;;;;;;10.00;5.25;;;35.00;59.00;;;;;;7399734;19;19953;-82
2023/08/17 11:16:11;;;;;;;10.07;3.70;;;34.90;58.10;;;;;;7416778;19;20246;-80
2023/08/17 11:18:37;;;;;;;10.52;5.15;;;34.90;57.90;;;;;;7416988;19;20002;-80
2023/08/17 11:21:06;;;;;;;9.20;4.65;;;35.30;57.30;;;;;;7415422;19;19928;-80
2023/08/17 11:23:36;;;;;;;7.40;5.60;;;35.50;56.80;;;;;;7417421;19;19922;-80
2023/08/17 11:26:02;;;;;;;11.45;5.00;;;35.70;56.50;;;;;;7418378;19;19966;-79
2023/08/17 11:28:38;;;;;;;8.40;4.38;;;35.60;56.50;;;;;;7418939;19;20371;-80
2023/08/17 11:31:06;;;;;;;10.27;5.63;;;35.60;57.30;;;;;;7418372;19;19915;-79
2023/08/17 11:33:33;;;;;;;10.07;5.22;;;35.80;57.20;;;;;;7417338;19;19914;-81
2023/08/17 11:36:05;;;;;;;9.27;4.93;;;36.10;56.60;;;;;;7417661;19;19922;-81
2023/08/17 11:38:34;;;;;;;11.25;5.63;;;35.90;56.70;;;;;;7416315;19;20017;-80
2023/08/17 11:41:02;;;;;;;8.65;5.85;;;35.60;57.90;;;;;;7419369;19;19937;-79
2023/08/17 11:43:31;;;;;;;10.45;6.03;;;35.60;57.70;;;;;;7418568;19;19915;-79
2023/08/17 11:45:57;;;;;;;7.47;5.25;;;35.60;58.20;;;;;;7384449;19;19917;-81
2023/08/17 11:48:27;;;;;;;7.45;4.55;;;35.40;58.30;;;;;;7419847;19;19926;-81
2023/08/17 11:50:54;;;;;;;9.40;5.50;;;35.20;59.20;;;;;;7420468;19;19914;-81
2023/08/17 11:53:21;;;;;;;8.15;5.38;;;35.70;58.60;;;;;;7424590;19;19930;-81
2023/08/17 11:55:47;;;;;;;7.40;4.68;;;36.50;56.70;;;;;;7422582;19;19914;-81
2023/08/17 11:58:14;;;;;;;7.75;4.25;;;36.40;56.70;;;;;;7395992;19;19926;-82
2023/08/17 12:00:44;;;;;;;7.70;5.97;;;36.90;55.90;;;;;;7421456;19;19947;-81
2023/08/17 12:03:14;;;;;;;7.72;5.07;;;36.60;55.70;;;;;;7417207;19;19945;-82
2023/08/17 12:05:40;;;;;;;6.75;5.22;;;36.30;56.70;;;;;;7416648;19;19946;-83
2023/08/17 12:08:08;;;;;;;9.52;4.90;;;36.00;56.60;;;;;;7417291;19;19918;-82
2023/08/17 12:10:34;;;;;;;7.57;5.03;;;36.40;57.00;;;;;;7418272;19;19947;-81
2023/08/17 12:13:01;;;;;;;8.38;5.28;;;36.30;57.30;;;;;;7418673;19;19918;-82
2023/08/17 12:15:32;;;;;;;9.52;5.43;;;36.20;57.50;;;;;;7418799;19;19918;-83
2023/08/17 12:18:03;;;;;;;8.45;5.97;;;35.80;58.30;;;;;;7418689;19;19970;-81
2023/08/17 12:20:30;;;;;;;7.18;6.18;;;36.00;59.10;;;;;;7417912;19;19914;-82
2023/08/17 12:23:01;;;;;;;7.55;4.95;;;36.20;59.10;;;;;;7422115;19;19918;-81
2023/08/17 12:25:28;;;;;;;7.57;6.40;;;36.50;58.50;;;;;;7398922;19;19918;-83
2023/08/17 12:27:54;;;;;;;8.30;5.72;;;36.70;58.00;;;;;;7421945;19;19919;-82
2023/08/17 12:30:36;;;;;;;9.85;6.38;;;36.70;57.60;;;;;;7417525;19;19918;-85
2023/08/17 12:33:04;;;;;;;7.10;5.95;;;35.90;58.50;;;;;;7419557;19;19927;-81
2023/08/17 12:35:31;;;;;;;8.95;5.90;;;36.30;58.60;;;;;;7415845;19;19919;-82
2023/08/17 12:37:57;;;;;;;8.52;5.88;;;36.70;58.30;;;;;;7417782;19;19919;-82
2023/08/17 12:40:24;;;;;;;9.68;5.75;;;36.90;57.50;;;;;;7416818;19;19946;-82
2023/08/17 12:42:50;;;;;;;8.25;6.13;;;36.80;57.00;;;;;;7419293;19;19927;-82